Quitman, Mississippi
Current Conditions -  °F | °C
As of 8:58 AM on Friday 19 Dec 2014 (Local Time) from KMEI Reporting Station
Overcast Overcast  
Wind Chill: 48°   Ceiling: 2600
Heat Index: 48°   Visibility: 10mi
Dew Point: 33°   Wind: 3mph
Humidity: 56%   Direction: 40°NE
Pressure: 30.23"   Gusts: NA
Location:  32.04°N, 88.73°W
Report Text: KMEI 191458Z 04003KT 10SM OVC026 09/01 A3023 RMK AO2 SLP238 T00890006 52023
Loading
Personal Weather Stations






























Interactive Weather Map New forecast layout! Learn more

10-Day Weather Forecast

Advertisements
Track Severe Weather on mobile